createdAt,value
2023-08-12T00:00:51.080Z,22.80
2023-08-12T00:03:18.911Z,22.81
2023-08-12T00:05:47.612Z,22.78
2023-08-12T00:08:15.286Z,22.83
2023-08-12T00:10:44.632Z,22.84
2023-08-12T00:13:14.591Z,22.84
2023-08-12T00:15:42.743Z,22.83
2023-08-12T00:18:10.607Z,22.83
2023-08-12T00:20:39.128Z,22.79
2023-08-12T00:23:07.002Z,22.80
2023-08-12T00:25:34.578Z,22.77
2023-08-12T00:28:03.824Z,22.76
2023-08-12T00:30:31.478Z,22.74
2023-08-12T00:32:59.118Z,22.76
2023-08-12T00:35:26.847Z,22.73
2023-08-12T00:37:54.533Z,22.76
2023-08-12T00:40:22.218Z,22.74
2023-08-12T00:42:49.798Z,22.74
2023-08-12T00:45:18.853Z,22.69
2023-08-12T00:47:46.458Z,22.66
2023-08-12T00:50:16.457Z,22.64
2023-08-12T00:52:44.340Z,22.63
2023-08-12T00:55:12.399Z,22.62
2023-08-12T00:57:40.082Z,22.60
2023-08-12T01:00:09.171Z,22.60
2023-08-12T01:02:38.372Z,22.57
2023-08-12T01:05:07.048Z,22.55
2023-08-12T01:07:35.290Z,22.49
2023-08-12T01:10:03.002Z,22.48
2023-08-12T01:12:34.359Z,22.48
2023-08-12T01:15:07.728Z,22.44
2023-08-12T01:17:36.241Z,22.41
2023-08-12T01:20:09.314Z,22.40
2023-08-12T01:22:40.463Z,22.39
2023-08-12T01:25:10.303Z,22.38
2023-08-12T01:27:38.346Z,22.40
2023-08-12T01:30:07.745Z,22.39
2023-08-12T01:32:40.789Z,22.27
2023-08-12T01:35:13.503Z,22.24
2023-08-12T01:37:41.447Z,22.21
2023-08-12T01:40:11.687Z,22.23
2023-08-12T01:42:41.269Z,22.15
2023-08-12T01:45:09.582Z,22.21
2023-08-12T01:47:37.201Z,22.21
2023-08-12T01:50:05.484Z,22.15
2023-08-12T01:52:33.190Z,22.20
2023-08-12T01:55:00.988Z,22.07
2023-08-12T01:57:30.049Z,21.95
2023-08-12T01:59:57.781Z,21.88
2023-08-12T02:02:25.484Z,21.74
2023-08-12T02:04:53.118Z,21.56
2023-08-12T02:07:20.788Z,21.40
2023-08-12T02:09:48.448Z,21.34
2023-08-12T02:12:16.058Z,21.21
2023-08-12T02:14:45.197Z,21.07
2023-08-12T02:17:13.042Z,20.95
2023-08-12T02:19:40.890Z,20.81
2023-08-12T02:22:08.548Z,20.62
2023-08-12T02:24:36.220Z,20.39
2023-08-12T02:27:04.005Z,20.26
2023-08-12T02:29:31.587Z,20.20
2023-08-12T02:32:00.667Z,20.11
2023-08-12T02:34:28.339Z,19.99
2023-08-12T02:36:55.927Z,19.85
2023-08-12T02:39:23.557Z,19.70
2023-08-12T02:41:51.158Z,19.58
2023-08-12T02:44:19.303Z,19.53
2023-08-12T02:46:47.019Z,19.51
2023-08-12T02:49:16.147Z,19.56
2023-08-12T02:51:43.847Z,19.55
2023-08-12T02:54:11.467Z,19.52
2023-08-12T02:56:39.132Z,19.46
2023-08-12T02:59:06.818Z,19.46
2023-08-12T03:01:34.772Z,19.47
2023-08-12T03:04:02.437Z,19.52
2023-08-12T03:06:31.423Z,19.54
2023-08-12T03:08:59.082Z,19.52
2023-08-12T03:11:26.866Z,19.56
2023-08-12T03:13:54.493Z,19.54
2023-08-12T03:16:22.143Z,19.55
2023-08-12T03:18:49.763Z,19.58
2023-08-12T03:21:17.416Z,19.49
2023-08-12T03:23:46.626Z,19.60
2023-08-12T03:26:15.323Z,19.64
2023-08-12T03:28:42.979Z,19.71
2023-08-12T03:31:10.640Z,19.78
2023-08-12T03:33:38.287Z,19.82
2023-08-12T03:36:06.413Z,19.82
2023-08-12T03:38:34.053Z,19.86
2023-08-12T03:41:03.305Z,19.92
2023-08-12T03:43:30.996Z,19.93
2023-08-12T03:45:58.704Z,19.94
2023-08-12T03:48:26.402Z,19.93
2023-08-12T03:50:54.137Z,19.95
2023-08-12T03:53:21.834Z,19.96
2023-08-12T03:55:49.482Z,19.96
2023-08-12T03:58:18.993Z,19.99
2023-08-12T04:00:46.715Z,19.99
2023-08-12T04:03:15.269Z,19.93
2023-08-12T04:05:49.694Z,19.93
2023-08-12T04:08:17.379Z,19.87
2023-08-12T04:10:47.296Z,19.88
2023-08-12T04:13:15.190Z,19.91
2023-08-12T04:15:44.474Z,19.83
2023-08-12T04:18:12.119Z,19.78
2023-08-12T04:20:40.498Z,19.89
2023-08-12T04:23:08.235Z,19.95
2023-08-12T04:25:35.840Z,19.96
2023-08-12T04:28:03.560Z,19.96
2023-08-12T04:30:31.303Z,19.94
2023-08-12T04:33:00.331Z,20.00
2023-08-12T04:35:28.105Z,20.00
2023-08-12T04:37:55.766Z,19.95
2023-08-12T04:40:23.610Z,20.05
2023-08-12T04:42:51.353Z,20.10
2023-08-12T04:45:19.163Z,20.12
2023-08-12T04:47:46.833Z,20.10
2023-08-12T04:50:16.022Z,20.21
2023-08-12T04:52:43.699Z,20.12
2023-08-12T04:55:12.651Z,20.23
2023-08-12T04:57:40.423Z,19.93
2023-08-12T05:00:09.356Z,20.21
2023-08-12T05:02:37.192Z,20.38
2023-08-12T05:05:06.214Z,20.41
2023-08-12T05:07:37.022Z,20.44
2023-08-12T05:10:07.091Z,20.47
2023-08-12T05:12:34.768Z,20.55
2023-08-12T05:15:02.699Z,20.51
2023-08-12T05:17:30.439Z,20.55
2023-08-12T05:19:58.235Z,20.56
2023-08-12T05:22:26.056Z,20.56
2023-08-12T05:24:55.107Z,20.53
2023-08-12T05:27:22.850Z,20.47
2023-08-12T05:29:50.436Z,20.41
2023-08-12T05:32:18.051Z,20.60
2023-08-12T05:34:45.655Z,20.65
2023-08-12T05:37:13.393Z,20.72
2023-08-12T05:39:41.046Z,20.70
2023-08-12T05:42:10.414Z,20.77
2023-08-12T05:44:38.492Z,20.74
2023-08-12T05:47:06.458Z,20.73
2023-08-12T05:49:34.088Z,20.57
2023-08-12T05:52:01.755Z,20.55
2023-08-12T05:54:29.390Z,20.37
2023-08-12T05:57:00.117Z,20.20
2023-08-12T05:59:29.252Z,20.07
2023-08-12T06:01:56.931Z,19.96
2023-08-12T06:04:24.656Z,19.88
2023-08-12T06:06:52.459Z,19.80
2023-08-12T06:09:20.206Z,19.55
2023-08-12T06:11:47.867Z,19.64
2023-08-12T06:14:15.509Z,19.72
2023-08-12T06:16:44.514Z,19.68
2023-08-12T06:19:12.419Z,19.72
2023-08-12T06:21:40.224Z,19.71
2023-08-12T06:24:08.499Z,19.81
2023-08-12T06:26:36.205Z,19.98
2023-08-12T06:29:06.070Z,20.00
2023-08-12T06:31:34.177Z,20.06
2023-08-12T06:34:03.170Z,20.01
2023-08-12T06:36:30.798Z,20.00
2023-08-12T06:39:00.631Z,19.95
2023-08-12T06:41:28.747Z,19.89
2023-08-12T06:43:56.354Z,19.98
2023-08-12T06:46:24.104Z,20.03
2023-08-12T06:48:51.748Z,19.99
2023-08-12T06:51:20.863Z,19.98
2023-08-12T06:53:48.471Z,19.97
2023-08-12T06:56:16.096Z,19.94
2023-08-12T06:58:43.761Z,19.91
2023-08-12T07:01:13.613Z,19.97
2023-08-12T07:03:43.049Z,20.06
2023-08-12T07:06:10.878Z,20.06
2023-08-12T07:08:40.033Z,20.10
2023-08-12T07:11:07.811Z,20.14
2023-08-12T07:13:35.723Z,20.24
2023-08-12T07:16:03.548Z,19.97
2023-08-12T07:18:32.066Z,20.51
2023-08-12T07:21:00.910Z,20.56
2023-08-12T07:23:28.589Z,20.66
2023-08-12T07:25:57.722Z,20.75
2023-08-12T07:28:25.397Z,20.61
2023-08-12T07:30:53.526Z,20.46
2023-08-12T07:33:21.900Z,20.51
2023-08-12T07:35:49.540Z,20.54
2023-08-12T07:38:17.121Z,20.48
2023-08-12T07:40:44.780Z,20.43
2023-08-12T07:43:13.701Z,20.51
2023-08-12T07:45:41.282Z,20.48
2023-08-12T07:48:09.018Z,20.45
2023-08-12T07:50:36.819Z,20.48
2023-08-12T07:53:04.668Z,20.59
2023-08-12T07:55:32.664Z,20.81
2023-08-12T07:58:00.302Z,20.95
2023-08-12T08:00:29.325Z,21.05
2023-08-12T08:02:56.953Z,21.03
2023-08-12T08:05:24.680Z,21.06
2023-08-12T08:07:52.345Z,21.34
2023-08-12T08:10:19.979Z,21.47
2023-08-12T08:12:47.576Z,21.68
2023-08-12T08:15:15.201Z,21.62
2023-08-12T08:17:44.280Z,21.52
2023-08-12T08:20:12.448Z,21.61
2023-08-12T08:22:40.691Z,21.64
2023-08-12T08:25:09.264Z,21.76
2023-08-12T08:27:36.847Z,21.76
2023-08-12T08:30:05.031Z,21.58
2023-08-12T08:32:32.673Z,21.33
2023-08-12T08:35:01.944Z,21.16
2023-08-12T08:37:29.599Z,21.11
2023-08-12T08:39:57.141Z,21.12
2023-08-12T08:42:26.438Z,21.21
2023-08-12T08:44:55.027Z,21.36
2023-08-12T08:47:28.056Z,21.35
2023-08-12T08:49:57.317Z,21.36
2023-08-12T08:52:26.818Z,21.41
2023-08-12T08:54:55.138Z,21.55
2023-08-12T08:57:24.822Z,21.66
2023-08-12T09:02:41.700Z,21.68
2023-08-12T09:05:10.198Z,21.61
2023-08-12T09:07:39.297Z,21.52
2023-08-12T09:10:08.332Z,21.45
2023-08-12T09:12:37.562Z,21.53
2023-08-12T09:15:07.324Z,21.75
2023-08-12T09:17:35.421Z,21.73
2023-08-12T09:20:04.259Z,21.90
2023-08-12T09:22:31.928Z,22.10
2023-08-12T09:25:02.139Z,22.26
2023-08-12T09:27:30.246Z,22.37
2023-08-12T09:29:58.630Z,22.71
2023-08-12T09:32:26.322Z,23.26
2023-08-12T09:34:55.306Z,23.07
2023-08-12T09:37:24.561Z,22.67
2023-08-12T09:39:53.113Z,22.39
2023-08-12T09:42:22.221Z,22.50
2023-08-12T09:44:49.860Z,22.27
2023-08-12T09:47:17.443Z,22.27
2023-08-12T09:49:45.210Z,22.46
2023-08-12T09:52:14.138Z,22.66
2023-08-12T09:54:44.062Z,22.65
2023-08-12T09:57:13.509Z,22.54
2023-08-12T09:59:42.569Z,22.23
2023-08-12T10:02:15.237Z,22.05
2023-08-12T10:04:44.290Z,21.80
2023-08-12T10:07:13.892Z,21.68
2023-08-12T10:09:41.909Z,21.63
2023-08-12T10:12:10.386Z,21.52
2023-08-12T10:14:39.352Z,21.31
2023-08-12T10:17:10.422Z,21.28
2023-08-12T10:19:38.387Z,21.09
2023-08-12T10:22:06.180Z,21.02
2023-08-12T10:24:36.211Z,21.00
2023-08-12T10:27:03.956Z,21.00
2023-08-12T10:29:32.561Z,20.98
2023-08-12T10:32:01.589Z,20.91
2023-08-12T10:34:30.578Z,20.98
2023-08-12T10:37:03.435Z,20.88
2023-08-12T10:39:33.748Z,20.88
2023-08-12T10:42:01.666Z,20.91
2023-08-12T10:44:30.740Z,20.79
2023-08-12T10:47:00.443Z,20.73
2023-08-12T10:49:28.139Z,20.89
2023-08-12T10:51:57.328Z,20.78
2023-08-12T10:54:28.231Z,20.75
2023-08-12T10:57:14.470Z,20.99
2023-08-12T10:59:56.341Z,21.52
2023-08-12T11:02:28.526Z,21.76
2023-08-12T11:04:57.605Z,22.02
2023-08-12T11:07:34.893Z,22.20
2023-08-12T11:10:06.847Z,22.13
2023-08-12T11:12:35.945Z,22.29
2023-08-12T11:15:05.180Z,22.39
2023-08-12T11:17:37.246Z,22.50
2023-08-12T11:20:07.684Z,22.48
2023-08-12T11:22:39.366Z,22.65
2023-08-12T11:25:09.799Z,22.88
2023-08-12T11:27:42.763Z,23.13
2023-08-12T11:30:12.354Z,23.28
2023-08-12T11:32:40.869Z,23.93
2023-08-12T11:35:10.340Z,24.16
2023-08-12T11:37:40.132Z,24.66
2023-08-12T11:40:10.470Z,24.96
2023-08-12T11:42:38.638Z,25.11
2023-08-12T11:45:08.003Z,25.10
2023-08-12T11:47:35.926Z,24.80
2023-08-12T11:50:04.780Z,24.57
2023-08-12T11:52:32.741Z,24.42
2023-08-12T11:55:01.834Z,24.43
2023-08-12T11:57:29.718Z,24.39
2023-08-12T12:00:00.794Z,24.05
2023-08-12T12:02:28.605Z,24.11
2023-08-12T12:04:56.459Z,23.99
2023-08-12T12:07:25.562Z,24.15
2023-08-12T12:09:54.330Z,24.20
2023-08-12T12:12:26.616Z,24.22
2023-08-12T12:14:55.550Z,24.25
2023-08-12T12:17:23.883Z,24.76
2023-08-12T12:19:57.606Z,24.81
2023-08-12T12:22:28.836Z,24.52
2023-08-12T12:24:56.556Z,24.41
2023-08-12T12:27:26.406Z,24.01
2023-08-12T12:29:54.049Z,23.73
2023-08-12T12:32:22.245Z,23.42
2023-08-12T12:34:50.069Z,23.32
2023-08-12T12:37:17.750Z,23.39
2023-08-12T12:39:45.462Z,23.31
2023-08-12T12:42:13.735Z,23.43
2023-08-12T12:44:42.927Z,23.52
2023-08-12T12:47:12.136Z,23.71
2023-08-12T12:49:39.864Z,23.72
2023-08-12T12:52:07.488Z,23.82
2023-08-12T12:54:35.171Z,23.72
2023-08-12T12:57:03.052Z,23.74
2023-08-12T12:59:30.688Z,23.70
2023-08-12T13:01:59.680Z,23.78
2023-08-12T13:04:27.376Z,23.93
2023-08-12T13:06:55.023Z,23.88
2023-08-12T13:09:22.707Z,23.98
2023-08-12T13:11:50.340Z,23.93
2023-08-12T13:14:20.789Z,23.78
2023-08-12T13:16:48.434Z,23.60
2023-08-12T13:19:17.374Z,23.56
2023-08-12T13:21:44.917Z,23.69
2023-08-12T13:24:13.167Z,23.93
2023-08-12T13:26:40.904Z,24.77
2023-08-12T13:29:08.745Z,25.37
2023-08-12T13:31:36.457Z,25.53
2023-08-12T13:34:04.462Z,25.79
2023-08-12T13:36:33.457Z,26.37
2023-08-12T13:39:01.506Z,26.32
2023-08-12T13:41:29.249Z,26.47
2023-08-12T13:43:56.911Z,26.75
2023-08-12T13:46:24.646Z,26.79
2023-08-12T13:48:52.294Z,26.89
2023-08-12T13:51:19.918Z,26.66
2023-08-12T13:53:48.963Z,26.51
2023-08-12T13:56:17.292Z,26.05
2023-08-12T13:58:44.934Z,25.87
2023-08-12T14:01:12.750Z,25.52
2023-08-12T14:03:40.388Z,25.19
2023-08-12T14:06:11.203Z,24.92
2023-08-12T14:08:38.870Z,24.67
2023-08-12T14:11:07.855Z,24.65
2023-08-12T14:13:35.488Z,24.87
2023-08-12T14:16:03.052Z,24.95
2023-08-12T14:18:30.723Z,25.02
2023-08-12T14:20:58.299Z,25.05
2023-08-12T14:23:25.956Z,25.42
2023-08-12T14:25:53.551Z,25.44
2023-08-12T14:28:22.554Z,25.52
2023-08-12T14:30:50.222Z,25.50
2023-08-12T14:33:17.872Z,25.22
2023-08-12T14:35:45.553Z,24.59
2023-08-12T14:38:13.737Z,24.47
2023-08-12T14:40:41.376Z,24.33
2023-08-12T14:43:09.017Z,24.17
2023-08-12T14:45:37.951Z,24.08
2023-08-12T14:48:05.956Z,23.99
2023-08-12T14:50:33.602Z,23.93
2023-08-12T14:53:01.229Z,24.07
2023-08-12T14:55:28.868Z,24.26
2023-08-12T14:57:56.509Z,24.52
2023-08-12T15:00:24.213Z,24.78
2023-08-12T15:02:53.267Z,25.06
2023-08-12T15:05:20.934Z,25.23
2023-08-12T15:07:48.628Z,25.09
2023-08-12T15:10:16.250Z,24.98
2023-08-12T15:12:43.984Z,24.93
2023-08-12T15:15:11.910Z,24.69
2023-08-12T15:17:39.659Z,24.58
2023-08-12T15:20:11.476Z,24.37
2023-08-12T15:22:39.326Z,24.15
2023-08-12T15:25:07.731Z,24.03
2023-08-12T15:27:35.459Z,23.95
2023-08-12T15:30:03.322Z,23.68
2023-08-12T15:32:31.723Z,23.80
2023-08-12T15:34:59.480Z,23.86
2023-08-12T15:37:28.482Z,23.80
2023-08-12T15:39:56.070Z,23.87
2023-08-12T15:42:23.682Z,24.06
2023-08-12T15:44:51.308Z,24.35
2023-08-12T15:47:18.900Z,24.27
2023-08-12T15:49:46.513Z,24.23
2023-08-12T15:52:14.099Z,24.06
2023-08-12T15:54:43.165Z,23.86
2023-08-12T15:57:11.470Z,23.80
2023-08-12T15:59:39.329Z,23.76
2023-08-12T16:02:08.720Z,23.54
2023-08-12T16:04:37.866Z,23.59
2023-08-12T16:07:05.713Z,23.72
2023-08-12T16:09:33.381Z,23.73
2023-08-12T16:12:02.491Z,23.69
2023-08-12T16:14:30.100Z,23.64
2023-08-12T16:16:57.759Z,23.61
2023-08-12T16:19:25.341Z,23.53
2023-08-12T16:21:52.971Z,23.67
2023-08-12T16:24:20.571Z,23.70
2023-08-12T16:26:48.301Z,23.75
2023-08-12T16:29:17.332Z,23.70
2023-08-12T16:31:45.017Z,23.69
2023-08-12T16:34:12.669Z,23.71
2023-08-12T16:36:40.278Z,23.65
2023-08-12T16:39:09.999Z,23.57
2023-08-12T16:41:37.935Z,23.56
2023-08-12T16:44:06.061Z,23.58
2023-08-12T16:46:35.008Z,23.42
2023-08-12T16:49:02.650Z,23.32
2023-08-12T16:51:30.691Z,23.35
2023-08-12T16:53:58.433Z,23.36
2023-08-12T16:56:26.175Z,23.48
2023-08-12T16:58:53.817Z,23.91
2023-08-12T17:01:22.303Z,24.25
2023-08-12T17:03:51.550Z,24.39
2023-08-12T17:06:19.229Z,24.45
2023-08-12T17:08:46.865Z,24.43
2023-08-12T17:11:14.463Z,24.49
2023-08-12T17:13:42.936Z,24.22
2023-08-12T17:16:10.637Z,23.99
2023-08-12T17:18:38.266Z,23.65
2023-08-12T17:21:07.271Z,23.73
2023-08-12T17:23:35.198Z,23.65
2023-08-12T17:26:02.847Z,23.64
2023-08-12T17:28:30.478Z,23.57
2023-08-12T17:30:58.161Z,23.44
2023-08-12T17:33:25.919Z,23.50
2023-08-12T17:35:53.539Z,23.52
2023-08-12T17:38:22.544Z,23.42
2023-08-12T17:40:50.917Z,23.45
2023-08-12T17:43:18.529Z,23.51
2023-08-12T17:45:46.205Z,23.38
2023-08-12T17:48:13.932Z,23.25
2023-08-12T17:50:41.806Z,23.21
2023-08-12T17:53:09.579Z,23.16
2023-08-12T17:55:38.629Z,23.17
2023-08-12T17:58:07.230Z,23.05
2023-08-12T18:00:34.975Z,22.96
2023-08-12T18:03:02.688Z,22.83
2023-08-12T18:05:30.401Z,22.63
2023-08-12T18:07:58.055Z,22.55
2023-08-12T18:10:27.205Z,22.47
2023-08-12T18:12:56.222Z,22.38
2023-08-12T18:15:23.986Z,22.27
2023-08-12T18:17:52.666Z,22.13
2023-08-12T18:20:20.542Z,21.97
2023-08-12T18:22:48.224Z,21.95
2023-08-12T18:25:15.824Z,21.84
2023-08-12T18:27:43.452Z,21.83
2023-08-12T18:30:13.246Z,21.71
2023-08-12T18:32:41.129Z,21.68
2023-08-12T18:35:08.945Z,21.65
2023-08-12T18:37:36.534Z,21.54
2023-08-12T18:40:04.288Z,21.52
2023-08-12T18:42:31.950Z,21.47
2023-08-12T18:44:59.635Z,21.41
2023-08-12T18:47:28.568Z,21.32
2023-08-12T18:49:56.208Z,21.24
2023-08-12T18:52:23.860Z,21.30
2023-08-12T18:54:51.544Z,21.19
2023-08-12T18:57:19.185Z,21.13
2023-08-12T18:59:46.839Z,21.11
2023-08-12T19:02:16.635Z,21.15
2023-08-12T19:04:45.922Z,21.07
2023-08-12T19:07:13.592Z,21.09
2023-08-12T19:09:41.185Z,21.05
2023-08-12T19:12:10.705Z,20.96
2023-08-12T19:14:38.354Z,20.97
2023-08-12T19:17:06.176Z,20.90
2023-08-12T19:19:33.766Z,20.84
2023-08-12T19:22:02.800Z,20.78
2023-08-12T19:24:30.676Z,20.82
2023-08-12T19:26:58.612Z,20.81
2023-08-12T19:29:26.239Z,20.77
2023-08-12T19:31:53.883Z,20.78
2023-08-12T19:34:21.541Z,20.78
2023-08-12T19:36:49.192Z,20.92
2023-08-12T19:39:19.104Z,20.86
2023-08-12T19:41:46.773Z,20.89
2023-08-12T19:44:14.403Z,20.83
2023-08-12T19:46:42.113Z,20.82
2023-08-12T19:49:09.791Z,20.83
2023-08-12T19:51:37.456Z,20.82
2023-08-12T19:54:05.711Z,20.81
2023-08-12T19:56:34.730Z,20.78
2023-08-12T19:59:02.325Z,20.77
2023-08-12T20:01:30.039Z,20.78
2023-08-12T20:03:57.746Z,20.70
2023-08-12T20:06:25.407Z,20.62
2023-08-12T20:08:53.344Z,20.60
2023-08-12T20:11:20.981Z,20.53
2023-08-12T20:13:49.902Z,20.49
2023-08-12T20:16:17.544Z,20.45
2023-08-12T20:18:45.176Z,20.39
2023-08-12T20:21:12.780Z,20.37
2023-08-12T20:23:40.349Z,20.35
2023-08-12T20:26:10.172Z,20.33
2023-08-12T20:28:37.786Z,20.32
2023-08-12T20:31:06.766Z,20.38
2023-08-12T20:33:34.447Z,20.35
2023-08-12T20:36:02.197Z,20.31
2023-08-12T20:38:29.863Z,20.30
2023-08-12T20:40:57.422Z,20.26
2023-08-12T20:43:25.791Z,20.19
2023-08-12T20:45:54.239Z,20.15
2023-08-12T20:48:23.235Z,20.06
2023-08-12T20:50:50.901Z,20.04
2023-08-12T20:53:18.469Z,20.00
2023-08-12T20:55:46.298Z,19.94
2023-08-12T20:58:13.885Z,19.92
2023-08-12T21:00:41.473Z,19.89
2023-08-12T21:03:09.206Z,19.84
2023-08-12T21:05:39.127Z,19.85
2023-08-12T21:08:06.990Z,19.84
2023-08-12T21:10:34.726Z,19.83
2023-08-12T21:13:02.351Z,19.82
2023-08-12T21:15:30.057Z,19.83
2023-08-12T21:17:57.752Z,19.82
2023-08-12T21:20:25.538Z,19.83
2023-08-12T21:22:54.534Z,19.83
2023-08-12T21:25:22.128Z,19.83
2023-08-12T21:27:49.814Z,19.85
2023-08-12T21:30:17.995Z,19.89
2023-08-12T21:32:45.745Z,19.94
2023-08-12T21:35:13.375Z,19.97
2023-08-12T21:37:41.116Z,19.97
2023-08-12T21:40:12.304Z,19.99
2023-08-12T21:42:40.009Z,19.98
2023-08-12T21:45:08.811Z,19.98
2023-08-12T21:47:36.415Z,20.01
2023-08-12T21:50:04.185Z,20.09
2023-08-12T21:52:31.785Z,20.14
2023-08-12T21:54:59.627Z,20.14
2023-08-12T21:57:28.569Z,20.14
2023-08-12T21:59:56.297Z,20.12
2023-08-12T22:02:25.168Z,20.10
2023-08-12T22:04:52.845Z,20.08
2023-08-12T22:07:20.511Z,20.06
2023-08-12T22:09:48.192Z,19.98
2023-08-12T22:12:16.206Z,20.03
2023-08-12T22:14:45.314Z,20.02
2023-08-12T22:17:12.964Z,20.01
2023-08-12T22:19:40.590Z,20.02
2023-08-12T22:22:18.454Z,20.01
2023-08-12T22:24:47.615Z,20.03
2023-08-12T22:27:15.387Z,20.03
2023-08-12T22:29:42.994Z,20.04
2023-08-12T22:32:12.467Z,20.06
2023-08-12T22:34:40.379Z,20.08
2023-08-12T22:37:08.065Z,20.04
2023-08-12T22:39:35.666Z,20.05
2023-08-12T22:42:03.265Z,20.01
2023-08-12T22:44:30.945Z,19.99
2023-08-12T22:46:58.634Z,19.99
2023-08-12T22:49:27.676Z,19.99
2023-08-12T22:51:55.369Z,19.98
2023-08-12T22:54:23.030Z,19.93
2023-08-12T22:56:50.658Z,19.89
2023-08-12T22:59:19.262Z,19.91
2023-08-12T23:01:47.006Z,19.90
2023-08-12T23:04:14.571Z,19.86
2023-08-12T23:06:43.536Z,19.80
2023-08-12T23:09:11.176Z,19.80
2023-08-12T23:11:38.792Z,19.72
2023-08-12T23:14:06.442Z,19.67
2023-08-12T23:16:34.025Z,19.64
2023-08-12T23:19:01.696Z,19.70
2023-08-12T23:21:29.346Z,19.55
2023-08-12T23:23:58.275Z,19.61
2023-08-12T23:26:25.885Z,19.55
2023-08-12T23:28:53.513Z,19.52
2023-08-12T23:31:21.195Z,19.50
2023-08-12T23:33:48.847Z,19.46
2023-08-12T23:36:16.456Z,19.41
2023-08-12T23:38:44.086Z,19.32
2023-08-12T23:41:13.056Z,19.30
2023-08-12T23:43:40.684Z,19.28
2023-08-12T23:46:08.266Z,19.21
2023-08-12T23:48:35.852Z,19.15
2023-08-12T23:51:03.483Z,19.11
2023-08-12T23:53:31.069Z,19.09
2023-08-12T23:55:58.731Z,19.09
2023-08-12T23:58:27.710Z,19.08
